Time;durP1;ratioP1;P1;durP2;ratioP2;P2;SDS_P1;SDS_P2;PMS_P1;PMS_P2;Temp;Humidity;BMP_temperature;BMP_pressure;BME280_temperature;BME280_humidity;BME280_pressure;Samples;Min_cycle;Max_cycle;Signal;HPM_P1;HPM_P2
2022/05/26 00:01:05;;;;;;;4.97;2.70;;;;;;;14.01;72.12;101622.03;4990248;28;20026;-77
2022/05/26 00:03:39;;;;;;;3.38;2.33;;;;;;;14.01;71.76;101622.03;4995906;28;20589;-77
2022/05/26 00:06:07;;;;;;;4.10;2.58;;;;;;;14.01;72.23;101615.94;4994394;28;20260;-77
2022/05/26 00:08:34;;;;;;;4.47;2.42;;;;;;;14.01;72.21;101619.41;4997997;28;20473;-77
2022/05/26 00:11:00;;;;;;;4.53;2.42;;;;;;;14.01;72.43;101621.19;4997931;28;20041;-77
2022/05/26 00:13:26;;;;;;;3.95;2.25;;;;;;;14.02;72.17;101622.91;5000034;28;20493;-77
2022/05/26 00:15:52;;;;;;;4.32;2.30;;;;;;;14.03;72.21;101624.63;4997750;28;20322;-78
2022/05/26 00:18:18;;;;;;;3.50;2.08;;;;;;;14.02;72.29;101634.22;4998187;28;20054;-78
2022/05/26 00:20:43;;;;;;;4.68;2.30;;;;;;;14.04;72.24;101626.34;4998052;28;20113;-78
2022/05/26 00:23:08;;;;;;;5.75;2.40;;;;;;;14.03;72.30;101633.31;4998667;28;20034;-78
2022/05/26 00:25:34;;;;;;;4.22;2.17;;;;;;;14.03;72.14;101633.31;5000225;28;20042;-78
2022/05/26 00:27:59;;;;;;;4.78;2.30;;;;;;;14.04;72.15;101629.78;4996059;28;20034;-77
2022/05/26 00:30:25;;;;;;;3.97;2.58;;;;;;;14.05;72.46;101635.91;4998623;28;20129;-77
2022/05/26 00:32:50;;;;;;;6.95;2.83;;;;;;;14.05;72.26;101641.97;4999158;28;20515;-78
2022/05/26 00:35:16;;;;;;;7.13;2.38;;;;;;;14.04;72.47;101642.88;5002289;28;20534;-78
2022/05/26 00:37:42;;;;;;;4.38;2.28;;;;;;;14.04;72.43;101640.25;5004899;28;20072;-78
2022/05/26 00:40:09;;;;;;;3.67;2.47;;;;;;;14.05;72.28;101643.75;5005459;28;20384;-78
2022/05/26 00:42:34;;;;;;;5.90;2.50;;;;;;;14.05;72.27;101639.38;5003048;28;20104;-78
2022/05/26 00:45:00;;;;;;;3.70;2.35;;;;;;;14.05;72.54;101644.59;5006775;28;20366;-78
2022/05/26 00:47:29;;;;;;;3.53;2.70;;;;;;;14.04;72.53;101642.88;5006645;28;20061;-78
2022/05/26 00:50:16;;;;;;;6.18;2.83;;;;;;;14.05;71.62;101641.97;5000801;28;20034;-77
2022/05/26 00:53:12;;;;;;;4.47;2.90;;;;;;;14.05;71.52;101641.13;5004741;28;20026;-78
2022/05/26 00:55:47;;;;;;;5.15;2.70;;;;;;;14.04;72.16;101637.66;4999731;28;20049;-77
2022/05/26 00:58:19;;;;;;;5.10;3.03;;;;;;;14.04;72.72;101645.50;5005428;28;20066;-78
2022/05/26 01:00:45;;;;;;;6.25;2.88;;;;;;;14.03;72.74;101643.78;5002332;28;20455;-78
2022/05/26 01:03:19;;;;;;;6.63;2.88;;;;;;;14.03;72.71;101635.09;5007482;28;20176;-78
2022/05/26 01:06:22;;;;;;;9.35;3.30;;;;;;;14.02;72.04;101643.84;5005284;28;20025;-78
2022/05/26 01:08:54;;;;;;;6.32;3.20;;;;;;;14.01;72.71;101637.72;5006854;28;20065;-77
2022/05/26 01:11:22;;;;;;;8.32;3.10;;;;;;;14.00;73.10;101640.41;5009805;28;20018;-78
2022/05/26 01:13:53;;;;;;;7.85;3.42;;;;;;;14.00;73.10;101641.28;5010912;28;20021;-78
2022/05/26 01:16:40;;;;;;;8.32;3.53;;;;;;;14.00;72.67;101646.50;5011628;28;20034;-77
2022/05/26 01:19:27;;;;;;;7.32;3.20;;;;;;;13.99;72.45;101639.56;5004953;28;20131;-78
2022/05/26 01:22:11;;;;;;;8.35;3.55;;;;;;;14.00;73.20;101641.28;5007632;28;20480;-78
2022/05/26 01:24:53;;;;;;;8.30;3.30;;;;;;;14.01;72.39;101647.34;5008368;28;20193;-78
2022/05/26 01:27:21;;;;;;;;;;;;;;;14.04;71.08;101650.72;5008763;28;20051;-78
2022/05/26 01:30:15;;;;;;;7.13;3.35;;;;;;;14.01;72.32;101657.81;5007831;28;19926;-78
2022/05/26 01:32:54;;;;;;;6.13;2.90;;;;;;;13.98;73.27;101653.53;5003836;28;20106;-78
2022/05/26 01:35:35;;;;;;;11.55;4.10;;;;;;;13.99;72.66;101652.63;5004585;28;20038;-78
2022/05/26 01:38:22;;;;;;;8.77;3.90;;;;;;;13.98;72.32;101658.75;5006802;28;20079;-78
2022/05/26 01:41:07;;;;;;;9.00;3.95;;;;;;;13.98;73.27;101661.38;5003266;28;20548;-78
2022/05/26 01:43:55;;;;;;;12.85;4.00;;;;;;;13.99;72.60;101664.84;5003877;28;20034;-78
2022/05/26 01:46:25;;;;;;;7.57;3.90;;;;;;;13.98;73.88;101660.50;5008033;28;20037;-78
2022/05/26 01:49:15;;;;;;;10.73;4.20;;;;;;;13.96;72.91;101656.16;5004307;28;20030;-78
2022/05/26 01:51:47;;;;;;;9.60;4.05;;;;;;;13.96;73.86;101660.56;5005661;28;20100;-78
2022/05/26 01:54:40;;;;;;;9.13;3.88;;;;;;;13.98;73.07;101671.84;5006422;28;20053;-78
2022/05/26 01:57:16;;;;;;;8.88;3.78;;;;;;;13.97;73.64;101675.34;5003884;28;21379;-78
2022/05/26 01:59:47;;;;;;;7.95;4.25;;;;;;;13.97;73.82;101677.97;5007600;28;20105;-78
2022/05/26 02:02:22;;;;;;;9.15;3.97;;;;;;;13.98;74.09;101684.03;4990185;28;20084;-78
2022/05/26 02:04:54;;;;;;;10.13;4.32;;;;;;;13.98;74.14;101679.69;4987981;28;20041;-78
2022/05/26 02:07:35;;;;;;;8.32;4.30;;;;;;;13.98;73.45;101684.91;5006016;28;20021;-78
2022/05/26 02:10:06;;;;;;;7.65;4.80;;;;;;;13.99;74.09;101680.53;5001929;28;20030;-77
2022/05/26 02:12:39;;;;;;;10.13;4.67;;;;;;;13.99;73.86;101676.19;5007472;28;20033;-78
2022/05/26 02:15:13;;;;;;;8.40;4.68;;;;;;;13.98;74.16;101677.06;5008373;28;20030;-78
2022/05/26 02:17:44;;;;;;;11.48;5.38;;;;;;;13.99;74.34;101689.25;5001438;28;20053;-78
2022/05/26 02:20:16;;;;;;;11.30;5.78;;;;;;;13.99;74.16;101677.91;5005860;28;20030;-78
2022/05/26 02:23:02;;;;;;;10.60;5.40;;;;;;;13.98;73.50;101684.91;5007253;28;20025;-77
2022/05/26 02:25:28;;;;;;;12.18;5.85;;;;;;;13.98;74.50;101690.16;5004748;28;20049;-77
2022/05/26 02:27:56;;;;;;;11.07;5.78;;;;;;;13.97;74.34;101688.44;5006049;28;20021;-78
2022/05/26 02:30:26;;;;;;;12.15;6.40;;;;;;;13.96;74.44;101687.56;5008668;28;20022;-78
2022/05/26 02:32:53;;;;;;;13.38;6.28;;;;;;;13.96;74.68;101686.72;5003927;28;20060;-78
2022/05/26 02:35:25;;;;;;;11.57;6.32;;;;;;;13.96;74.45;101689.34;5001919;28;20030;-78
2022/05/26 02:37:54;;;;;;;11.75;6.40;;;;;;;13.97;74.52;101704.13;5006487;28;20480;-78
2022/05/26 02:40:20;;;;;;;15.40;6.50;;;;;;;13.96;74.70;101703.25;5003162;28;20150;-78
2022/05/26 02:42:55;;;;;;;12.60;6.30;;;;;;;13.96;74.41;101697.19;5004471;28;20338;-78
2022/05/26 02:45:49;;;;;;;12.05;6.50;;;;;;;13.97;74.27;101698.91;5006604;28;20040;-78
2022/05/26 02:48:35;;;;;;;13.68;6.75;;;;;;;13.95;74.13;101695.47;4989023;28;20385;-78
2022/05/26 02:51:14;;;;;;;14.32;6.55;;;;;;;13.94;74.61;101702.44;5004127;28;20045;-78
2022/05/26 02:53:41;;;;;;;15.73;7.25;;;;;;;13.94;74.83;101706.81;5004118;28;20103;-78
2022/05/26 02:56:45;;;;;;;12.13;6.72;;;;;;;13.95;73.89;101706.78;5005519;28;20477;-78
2022/05/26 02:59:48;;;;;;;12.77;6.80;;;;;;;13.94;73.76;101705.06;5002386;28;20053;-78
2022/05/26 03:02:45;;;;;;;16.70;6.80;;;;;;;13.93;74.23;101707.72;5006438;28;20018;-78
2022/05/26 03:05:18;;;;;;;11.50;6.85;;;;;;;13.91;74.54;101704.28;5004585;28;20040;-78
2022/05/26 03:07:48;;;;;;;13.13;6.97;;;;;;;13.91;74.93;101709.50;5004102;28;20073;-78
2022/05/26 03:10:15;;;;;;;17.35;7.32;;;;;;;13.90;75.26;101713.03;5005540;28;20500;-77
2022/05/26 03:12:40;;;;;;;13.98;6.95;;;;;;;13.89;75.30;101708.69;5008354;28;20114;-78
2022/05/26 03:15:08;;;;;;;14.88;6.90;;;;;;;13.89;75.09;101711.31;5002513;28;20080;-77
2022/05/26 03:17:34;;;;;;;15.10;6.70;;;;;;;13.88;75.22;101712.19;5002706;28;20061;-78
2022/05/26 03:19:59;;;;;;;14.73;6.82;;;;;;;13.88;75.08;101712.19;5006120;28;20168;-78
2022/05/26 03:22:25;;;;;;;12.30;6.65;;;;;;;13.86;75.25;101706.16;5005453;28;20121;-78
2022/05/26 03:24:51;;;;;;;14.15;6.70;;;;;;;13.86;75.13;101717.47;5003207;28;20026;-78
2022/05/26 03:27:17;;;;;;;13.15;6.65;;;;;;;13.83;75.22;101716.72;5002786;28;20037;-78
2022/05/26 03:29:42;;;;;;;17.13;7.25;;;;;;;13.84;75.33;101718.41;5005902;28;20018;-78
2022/05/26 03:32:08;;;;;;;12.18;6.57;;;;;;;13.84;75.40;101723.63;5003533;28;20030;-78
2022/05/26 03:42:48;;;;;;;15.80;6.68;;;;;;;13.81;75.45;101733.31;5001192;28;20037;-78
2022/05/26 03:45:20;;;;;;;14.68;6.32;;;;;;;13.81;75.43;101746.38;4989404;28;20026;-78
2022/05/26 03:47:46;;;;;;;13.30;6.38;;;;;;;13.81;75.68;101746.38;5002436;28;20034;-78
2022/05/26 03:50:11;;;;;;;12.95;6.90;;;;;;;13.81;75.49;101741.16;5003037;28;20048;-78
2022/05/26 03:52:37;;;;;;;15.50;6.90;;;;;;;13.83;75.58;101737.63;5005631;28;20110;-78
2022/05/26 03:55:03;;;;;;;15.25;7.60;;;;;;;13.82;75.67;101742.00;5006341;28;20028;-78
2022/05/26 03:57:31;;;;;;;18.25;7.07;;;;;;;13.85;75.75;101752.38;4987864;28;20029;-78
2022/05/26 03:59:57;;;;;;;17.40;6.60;;;;;;;13.87;75.62;101754.94;5002246;28;20480;-78
2022/05/26 04:02:22;;;;;;;16.42;6.82;;;;;;;13.86;75.38;101759.34;5004216;28;20044;-78
2022/05/26 04:04:47;;;;;;;15.48;7.40;;;;;;;13.85;75.35;101751.50;5004519;28;20029;-78
2022/05/26 04:07:13;;;;;;;23.70;6.70;;;;;;;13.83;75.73;101753.31;5005052;28;20036;-78
2022/05/26 04:09:40;;;;;;;18.67;6.47;;;;;;;13.80;75.54;101755.13;4999203;28;20021;-78
2022/05/26 04:12:09;;;;;;;15.48;6.57;;;;;;;13.80;75.64;101757.75;4999396;28;20370;-78
2022/05/26 04:14:35;;;;;;;18.35;6.70;;;;;;;13.79;75.70;101763.88;5003702;28;20474;-78
2022/05/26 04:17:00;;;;;;;18.58;6.22;;;;;;;13.80;75.79;101773.44;5000723;28;20205;-78
2022/05/26 04:19:26;;;;;;;14.52;5.80;;;;;;;13.79;75.53;101768.22;4999090;28;20057;-78
2022/05/26 04:24:36;;;;;;;16.35;5.57;;;;;;;13.78;75.53;101769.13;5007915;28;20091;-78
2022/05/26 04:27:01;;;;;;;15.95;5.32;;;;;;;13.78;75.55;101777.84;5001180;28;20018;-78
2022/05/26 04:29:27;;;;;;;13.95;5.90;;;;;;;13.79;75.54;101779.56;5001239;28;20042;-78
2022/05/26 04:31:52;;;;;;;13.30;5.50;;;;;;;13.79;75.33;101776.94;5002255;28;22177;-78
2022/05/26 04:34:17;;;;;;;17.17;5.85;;;;;;;13.81;75.58;101776.88;5002991;28;20080;-78
2022/05/26 04:36:42;;;;;;;23.10;5.82;;;;;;;13.82;75.54;101778.63;4983858;28;20037;-78
2022/05/26 04:39:08;;;;;;;18.60;5.68;;;;;;;13.83;75.18;101779.47;5004627;28;20388;-78
2022/05/26 04:41:33;;;;;;;12.40;4.97;;;;;;;13.83;75.29;101779.47;5000459;28;20017;-78
2022/05/26 04:43:58;;;;;;;16.83;5.35;;;;;;;13.81;75.20;101785.63;5003114;28;20072;-78
2022/05/26 04:46:23;;;;;;;16.30;4.93;;;;;;;13.81;75.50;101788.22;5001675;28;20034;-78
2022/05/26 04:48:49;;;;;;;15.35;5.03;;;;;;;13.80;75.44;101789.13;5003470;28;20033;-78
2022/05/26 04:51:14;;;;;;;14.77;5.28;;;;;;;13.80;75.38;101789.13;5002685;28;20106;-78
2022/05/26 04:53:39;;;;;;;17.65;4.63;;;;;;;13.81;75.32;101795.19;5000078;28;20061;-78
2022/05/26 04:56:05;;;;;;;13.88;4.78;;;;;;;13.83;75.14;101795.19;5008370;28;20451;-78
2022/05/26 04:58:30;;;;;;;14.05;4.90;;;;;;;13.84;75.21;101807.34;5005885;28;20030;-78
2022/05/26 05:00:55;;;;;;;19.73;5.78;;;;;;;13.83;75.38;101801.25;5007803;28;20033;-78
2022/05/26 05:03:20;;;;;;;13.60;4.78;;;;;;;13.88;75.19;101814.22;5006441;28;20042;-78
2022/05/26 05:05:47;;;;;;;17.45;5.20;;;;;;;13.89;75.42;101805.47;5006507;28;20543;-78
2022/05/26 05:08:12;;;;;;;16.42;5.20;;;;;;;13.92;75.07;101819.31;5006674;28;20042;-78
2022/05/26 05:10:37;;;;;;;15.30;5.18;;;;;;;13.94;74.51;101816.69;5006271;28;20392;-78
2022/05/26 05:13:03;;;;;;;15.55;4.85;;;;;;;13.98;75.07;101820.97;5006793;28;20052;-78
2022/05/26 05:15:36;;;;;;;11.52;4.40;;;;;;;14.01;74.70;101826.09;5007662;28;20022;-78
2022/05/26 05:18:01;;;;;;;15.13;4.43;;;;;;;14.02;74.83;101832.22;5006891;28;20046;-78
2022/05/26 05:20:27;;;;;;;17.58;4.93;;;;;;;14.05;74.99;101826.91;5004574;28;20362;-78
2022/05/26 05:23:03;;;;;;;13.48;4.70;;;;;;;14.04;74.56;101828.63;5006725;28;20101;-78
2022/05/26 05:25:36;;;;;;;12.55;4.60;;;;;;;14.07;74.88;101835.59;5008261;28;20457;-78
2022/05/26 05:28:09;;;;;;;16.90;4.47;;;;;;;14.08;74.58;101835.53;5007942;28;20117;-78
2022/05/26 05:30:43;;;;;;;14.30;4.43;;;;;;;14.14;74.56;101846.75;5006246;28;20033;-78
2022/05/26 05:33:20;;;;;;;15.85;4.65;;;;;;;14.16;74.48;101844.97;5005039;28;20477;-78
2022/05/26 05:36:06;;;;;;;14.25;4.60;;;;;;;14.19;74.00;101845.72;5006105;28;20026;-78
2022/05/26 05:38:33;;;;;;;16.02;4.43;;;;;;;14.19;74.42;101850.09;5006394;28;20432;-78
2022/05/26 05:41:01;;;;;;;19.08;4.72;;;;;;;14.20;74.71;101852.69;5005976;28;20049;-78
2022/05/26 05:43:26;;;;;;;13.75;4.70;;;;;;;14.23;74.20;101851.75;5007300;28;20026;-78
2022/05/26 05:45:51;;;;;;;19.08;4.95;;;;;;;14.26;74.36;101856.91;5008193;28;20501;-78
2022/05/26 05:48:17;;;;;;;16.83;5.13;;;;;;;14.27;74.32;101848.16;5006322;28;20052;-78
2022/05/26 05:50:42;;;;;;;16.23;4.88;;;;;;;14.30;74.04;101857.69;5014766;28;20030;-77
2022/05/26 05:53:09;;;;;;;13.88;4.55;;;;;;;14.31;74.08;101859.41;5009153;28;21172;-78
2022/05/26 05:55:34;;;;;;;18.95;5.28;;;;;;;14.33;74.23;101857.63;5015093;28;20037;-78
2022/05/26 05:57:59;;;;;;;15.13;4.88;;;;;;;14.36;73.95;101863.63;5008523;28;20366;-78
2022/05/26 06:00:25;;;;;;;12.93;4.70;;;;;;;14.39;74.04;101860.94;5007682;28;20173;-77
2022/05/26 06:02:50;;;;;;;16.60;4.80;;;;;;;14.41;73.95;101861.75;5000120;28;20461;-78
2022/05/26 06:05:15;;;;;;;14.77;4.38;;;;;;;14.45;73.97;101872.16;5012020;28;20037;-78
2022/05/26 06:07:41;;;;;;;13.90;4.80;;;;;;;14.47;73.96;101865.13;5008227;28;20025;-78
2022/05/26 06:10:08;;;;;;;18.50;4.68;;;;;;;14.48;73.83;101866.84;5008672;28;20029;-78
2022/05/26 06:12:35;;;;;;;15.25;4.47;;;;;;;14.51;74.21;101874.63;5015667;28;20496;-78
2022/05/26 06:15:00;;;;;;;14.02;4.78;;;;;;;14.54;73.68;101885.88;5006330;28;20033;-78
2022/05/26 06:17:25;;;;;;;16.92;5.03;;;;;;;14.55;73.54;101884.97;5009662;28;20492;-78
2022/05/26 06:19:52;;;;;;;12.98;4.28;;;;;;;14.56;73.68;101878.84;5010069;28;20041;-78
2022/05/26 06:22:21;;;;;;;13.85;4.85;;;;;;;14.63;73.87;101883.91;5005936;28;20030;-78
2022/05/26 06:24:47;;;;;;;14.50;4.90;;;;;;;14.69;73.39;101884.63;5006681;28;20045;-78
2022/05/26 06:29:59;;;;;;;14.23;4.55;;;;;;;14.75;73.15;101890.63;5010891;28;20045;-78
2022/05/26 06:37:54;;;;;;;17.05;4.95;;;;;;;14.72;73.16;101907.28;5009543;28;20119;-78
2022/05/26 06:40:19;;;;;;;13.60;5.47;;;;;;;14.69;73.06;101902.97;5008800;28;20418;-78
2022/05/26 06:42:46;;;;;;;15.90;4.82;;;;;;;14.72;73.27;101907.28;4991638;28;20022;-78
2022/05/26 06:45:16;;;;;;;14.32;4.95;;;;;;;14.77;73.04;101907.16;5005338;28;20591;-78
2022/05/26 06:47:42;;;;;;;15.43;4.97;;;;;;;14.83;72.74;101909.63;5004088;28;20028;-78
2022/05/26 06:50:09;;;;;;;17.20;5.43;;;;;;;14.90;72.54;101911.16;5012359;28;20408;-78
2022/05/26 06:52:34;;;;;;;15.57;5.13;;;;;;;14.97;72.38;101917.97;5001434;28;20466;-79
2022/05/26 06:55:02;;;;;;;20.17;5.63;;;;;;;15.10;72.25;101915.00;5007597;28;20041;-78
2022/05/26 06:57:27;;;;;;;15.90;5.75;;;;;;;15.16;71.46;101918.31;5000017;28;20080;-78
2022/05/26 06:59:53;;;;;;;18.42;6.07;;;;;;;15.21;71.48;101918.19;5003608;28;20073;-78
2022/05/26 07:02:18;;;;;;;12.60;5.38;;;;;;;15.27;70.78;101928.50;5004607;28;20032;-78
2022/05/26 07:04:43;;;;;;;14.07;5.07;;;;;;;15.33;71.15;101924.84;5006893;28;20123;-78
2022/05/26 07:07:12;;;;;;;15.50;5.75;;;;;;;15.31;69.75;101935.38;5007290;28;20029;-78
2022/05/26 07:09:38;;;;;;;13.75;5.45;;;;;;;15.26;70.01;101929.41;5006271;28;20033;-78
2022/05/26 07:12:03;;;;;;;11.73;5.43;;;;;;;15.25;69.75;101934.69;5002804;28;20358;-78
2022/05/26 07:14:29;;;;;;;13.85;5.32;;;;;;;15.25;70.16;101939.94;5007540;28;20087;-78
2022/05/26 07:16:55;;;;;;;11.07;5.10;;;;;;;15.27;69.63;101939.00;5003288;28;20485;-78
2022/05/26 07:19:20;;;;;;;13.02;5.22;;;;;;;15.32;69.48;101950.22;5000507;28;20495;-78
2022/05/26 07:21:49;;;;;;;14.57;5.00;;;;;;;15.39;70.15;101950.03;5009107;28;20476;-78
2022/05/26 07:24:21;;;;;;;12.43;5.78;;;;;;;15.44;69.70;101943.78;5005780;28;20460;-78
2022/05/26 07:26:48;;;;;;;13.57;5.78;;;;;;;15.44;68.06;101949.03;5006352;28;20096;-78
2022/05/26 07:29:15;;;;;;;11.15;5.57;;;;;;;15.51;68.96;101946.19;5007197;28;20022;-78
2022/05/26 07:31:40;;;;;;;12.88;5.22;;;;;;;15.56;68.50;101953.03;5007338;28;20044;-78
2022/05/26 07:34:06;;;;;;;13.10;6.03;;;;;;;15.60;68.22;101959.06;5005827;28;20477;-78
2022/05/26 07:42:11;;;;;;;13.90;5.40;;;;;;;15.73;68.39;101956.91;5004775;28;20060;-78
2022/05/26 07:44:40;;;;;;;10.25;5.38;;;;;;;15.75;66.70;101960.38;5006970;28;20174;-78
2022/05/26 07:47:07;;;;;;;11.88;4.97;;;;;;;15.81;66.52;101965.44;5006977;28;20450;-78
2022/05/26 07:49:34;;;;;;;10.82;5.00;;;;;;;15.89;65.80;101968.72;5006165;28;20074;-78
2022/05/26 07:52:01;;;;;;;15.80;5.03;;;;;;;15.99;65.88;101971.91;5003148;28;20029;-78
2022/05/26 07:54:27;;;;;;;13.88;5.43;;;;;;;16.06;65.21;101972.59;5006077;28;20492;-78
2022/05/26 07:56:53;;;;;;;13.80;4.90;;;;;;;16.12;64.63;101964.53;4988426;28;20076;-78
2022/05/26 07:59:18;;;;;;;13.57;4.93;;;;;;;16.17;65.23;101965.25;5009845;28;20029;-78
2022/05/26 08:01:43;;;;;;;12.52;4.95;;;;;;;16.19;64.72;101968.69;5008888;28;20071;-78
2022/05/26 08:04:08;;;;;;;11.10;4.70;;;;;;;16.14;64.41;101981.09;5008970;28;20022;-77
2022/05/26 08:06:34;;;;;;;10.77;4.57;;;;;;;16.12;64.83;101982.06;5005743;28;20029;-78
2022/05/26 08:09:00;;;;;;;12.20;5.20;;;;;;;16.12;64.37;101982.91;5003845;28;20060;-79
2022/05/26 08:11:25;;;;;;;11.90;4.82;;;;;;;16.15;65.18;101985.44;5003614;28;20389;-78
2022/05/26 08:13:50;;;;;;;11.00;4.63;;;;;;;16.21;65.30;101977.38;5008052;28;20399;-78
2022/05/26 08:16:16;;;;;;;12.15;4.55;;;;;;;16.27;64.12;101978.97;5005828;28;21853;-78
2022/05/26 08:18:41;;;;;;;10.32;4.95;;;;;;;16.39;63.48;101982.97;5001927;28;20135;-77
2022/05/26 08:21:09;;;;;;;10.13;4.80;;;;;;;16.47;63.20;101978.31;5002655;28;20030;-79
2022/05/26 08:23:34;;;;;;;11.10;4.75;;;;;;;16.49;63.12;101987.00;5004543;28;20033;-78
2022/05/26 08:26:01;;;;;;;9.90;4.88;;;;;;;16.47;63.68;101982.72;5004952;28;20527;-78
2022/05/26 08:28:26;;;;;;;10.73;5.13;;;;;;;16.39;62.86;101985.59;5009034;28;20026;-78
2022/05/26 08:30:51;;;;;;;10.18;4.82;;;;;;;16.31;62.65;101983.19;4992021;28;20503;-78
2022/05/26 08:33:17;;;;;;;9.35;5.07;;;;;;;16.31;63.68;101993.69;5003892;28;20038;-78
2022/05/26 08:35:42;;;;;;;9.90;4.43;;;;;;;16.32;64.18;101984.06;4983236;28;20034;-78
2022/05/26 08:38:08;;;;;;;13.00;5.60;;;;;;;16.35;63.51;101995.31;5002693;28;20109;-77
2022/05/26 08:40:40;;;;;;;10.25;5.30;;;;;;;16.39;63.34;101990.84;5002578;28;20033;-77
2022/05/26 08:43:10;;;;;;;14.77;5.78;;;;;;;16.46;63.74;101991.50;5000803;28;20045;-78
2022/05/26 08:45:40;;;;;;;12.80;5.53;;;;;;;16.55;62.52;101996.44;5000341;28;20033;-81
2022/05/26 08:48:06;;;;;;;10.68;5.07;;;;;;;16.61;63.05;101992.75;5008493;28;20033;-77
2022/05/26 08:50:34;;;;;;;10.65;4.53;;;;;;;16.68;61.93;102007.41;5007646;28;20026;-78
2022/05/26 08:53:05;;;;;;;13.02;5.03;;;;;;;16.75;62.60;102005.44;5008644;28;20029;-77
2022/05/26 08:55:36;;;;;;;9.70;4.28;;;;;;;16.81;61.32;102005.25;5008422;28;20038;-78
2022/05/26 08:58:18;;;;;;;12.70;4.07;;;;;;;16.89;62.29;101999.75;5009812;28;20025;-75
2022/05/26 09:00:47;;;;;;;9.30;4.47;;;;;;;17.00;61.62;102002.88;5011241;28;20049;-76
2022/05/26 09:03:34;;;;;;;9.65;4.10;;;;;;;17.09;61.97;102005.19;5009470;28;20022;-75
2022/05/26 09:06:04;;;;;;;8.38;4.63;;;;;;;17.07;60.24;102014.03;5010621;28;20033;-75
2022/05/26 09:14:07;;;;;;;6.47;4.10;;;;;;;17.18;59.68;102017.16;5013604;28;20084;-75
2022/05/26 09:16:39;;;;;;;10.30;4.07;;;;;;;17.25;59.35;102008.16;5014261;28;20116;-74
2022/05/26 09:19:15;;;;;;;10.23;4.00;;;;;;;17.31;59.24;102012.31;5015565;28;20139;-76
2022/05/26 09:21:42;;;;;;;7.22;3.67;;;;;;;17.34;56.72;102009.59;5010505;28;20168;-75
2022/05/26 09:24:26;;;;;;;6.47;3.70;;;;;;;17.41;59.00;102012.84;5003999;28;20037;-74
2022/05/26 09:27:00;;;;;;;5.88;3.20;;;;;;;17.43;56.87;102027.66;4997509;28;20241;-76
2022/05/26 09:29:28;;;;;;;5.95;3.20;;;;;;;17.48;57.54;102024.03;5005342;28;20049;-75
2022/05/26 09:31:56;;;;;;;8.88;3.22;;;;;;;17.54;57.04;102027.28;5003824;28;20037;-75
2022/05/26 09:34:25;;;;;;;11.68;3.80;;;;;;;17.57;57.41;102035.06;5007073;28;20038;-76
2022/05/26 09:36:55;;;;;;;7.93;4.20;;;;;;;17.59;56.70;102038.50;5005566;28;20033;-76
2022/05/26 09:39:30;;;;;;;9.40;4.40;;;;;;;17.66;57.60;102036.50;5007146;28;20022;-76
2022/05/26 09:41:57;;;;;;;7.22;3.90;;;;;;;17.71;55.97;102042.47;4984847;28;20030;-75
2022/05/26 09:44:48;;;;;;;7.68;3.80;;;;;;;17.82;57.43;102038.56;5000897;28;20025;-76
2022/05/26 09:47:45;;;;;;;7.80;3.92;;;;;;;17.82;57.06;102034.19;5001164;28;20034;-75
2022/05/26 09:50:35;;;;;;;7.10;4.00;;;;;;;17.80;56.22;102043.03;4998869;28;20535;-76
2022/05/26 09:53:03;;;;;;;10.35;3.15;;;;;;;17.86;55.55;102042.81;5001378;28;20145;-75
2022/05/26 09:55:32;;;;;;;13.20;4.80;;;;;;;17.85;54.96;102041.09;4999471;28;20514;-76
2022/05/26 09:58:06;;;;;;;10.32;5.13;;;;;;;17.77;55.91;102051.03;4996809;28;20040;-76
2022/05/26 10:00:39;;;;;;;8.15;4.90;;;;;;;17.70;55.82;102053.03;4998808;28;20750;-77
2022/05/26 10:03:11;;;;;;;9.00;5.82;;;;;;;17.65;55.49;102057.63;5003252;28;20105;-77
2022/05/26 10:05:48;;;;;;;7.55;6.00;;;;;;;17.63;55.76;102055.03;5002071;28;20530;-76
2022/05/26 10:08:25;;;;;;;7.85;4.68;;;;;;;17.66;54.62;102051.47;5001829;28;20151;-75
2022/05/26 10:10:59;;;;;;;10.85;4.68;;;;;;;17.72;54.02;102059.09;5001990;28;20044;-77
2022/05/26 10:13:56;;;;;;;9.52;5.00;;;;;;;17.68;55.45;102057.50;4999510;28;20108;-76
2022/05/26 10:16:40;;;;;;;8.95;5.80;;;;;;;17.65;56.11;102052.38;4985408;28;21460;-77
2022/05/26 10:19:19;;;;;;;12.30;6.38;;;;;;;17.68;56.18;102047.84;5001127;28;20073;-76
2022/05/26 10:22:27;;;;;;;9.63;6.95;;;;;;;17.78;56.77;102052.75;5000627;28;20048;-77
2022/05/26 10:25:21;;;;;;;9.93;5.90;;;;;;;17.92;55.55;102060.16;5000092;28;20108;-77
2022/05/26 10:27:57;;;;;;;13.23;4.38;;;;;;;17.99;53.20;102065.16;4998672;28;20029;-77
2022/05/26 10:30:47;;;;;;;10.00;4.35;;;;;;;18.03;53.71;102058.88;5001248;28;20027;-77
2022/05/26 10:33:48;;;;;;;10.50;5.10;;;;;;;18.07;54.30;102059.59;5001286;28;20045;-77
2022/05/26 10:36:23;;;;;;;8.98;5.53;;;;;;;18.13;53.50;102055.88;4974314;28;20038;-77
2022/05/26 10:39:06;;;;;;;8.77;5.80;;;;;;;18.24;55.07;102056.34;4995398;28;20034;-77
2022/05/26 10:41:41;;;;;;;8.23;5.57;;;;;;;18.30;53.92;102064.00;4999682;28;20582;-76
2022/05/26 10:44:32;;;;;;;9.65;5.70;;;;;;;18.32;52.80;102058.69;5003260;28;20033;-76
2022/05/26 10:47:17;;;;;;;7.28;4.50;;;;;;;18.34;53.58;102052.41;5000594;28;20061;-77
2022/05/26 10:49:50;;;;;;;6.68;4.18;;;;;;;18.34;52.29;102060.31;5003160;28;20038;-77
2022/05/26 10:52:42;;;;;;;8.02;4.00;;;;;;;18.31;53.07;102068.34;5001064;28;20034;-77
2022/05/26 10:55:18;;;;;;;5.75;3.78;;;;;;;18.30;52.89;102058.72;4997913;28;20192;-77
2022/05/26 10:57:59;;;;;;;10.50;5.00;;;;;;;18.41;53.31;102057.47;5002930;28;20397;-77
2022/05/26 11:00:28;;;;;;;6.75;4.65;;;;;;;18.55;51.62;102067.44;5003542;28;20855;-76
2022/05/26 11:02:53;;;;;;;6.25;4.10;;;;;;;18.65;50.64;102051.19;5002498;28;20022;-76
2022/05/26 11:05:48;;;;;;;8.13;4.35;;;;;;;18.76;52.54;102060.47;5003244;28;20388;-76
2022/05/26 11:08:38;;;;;;;10.57;5.55;;;;;;;18.86;52.71;102059.16;5005409;28;20503;-76
2022/05/26 11:11:35;;;;;;;10.45;6.53;;;;;;;18.98;52.54;102060.44;5003563;28;20465;-75
2022/05/26 11:17:53;;;;;;;8.65;5.95;;;;;;;19.13;52.01;102066.84;5001336;28;20045;-75
2022/05/26 11:20:22;;;;;;;12.57;6.30;;;;;;;19.13;50.77;102066.84;5004501;28;20030;-76
2022/05/26 11:22:51;;;;;;;10.73;6.32;;;;;;;19.04;50.89;102068.13;5005986;28;20033;-76
2022/05/26 11:25:28;;;;;;;10.80;7.38;;;;;;;18.92;52.08;102064.19;5001779;28;20053;-76
2022/05/26 11:28:05;;;;;;;10.52;6.90;;;;;;;18.85;50.74;102061.84;5000851;28;20037;-75
2022/05/26 11:37:17;;;;;;;12.18;7.80;;;;;;;18.73;51.68;102057.94;4996436;28;20076;-86
2022/05/26 11:39:45;;;;;;;10.85;7.47;;;;;;;18.70;51.16;102053.66;4997971;28;20041;-76
2022/05/26 11:42:24;;;;;;;10.27;6.93;;;;;;;18.72;52.21;102049.16;5000676;28;21708;-77
2022/05/26 11:45:08;;;;;;;15.88;7.57;;;;;;;18.74;52.02;102049.13;4998784;28;20034;-76
2022/05/26 11:47:49;;;;;;;11.25;6.90;;;;;;;18.75;52.24;102050.81;4997597;28;20034;-76
2022/05/26 11:50:26;;;;;;;11.90;6.32;;;;;;;18.80;51.32;102047.09;4997661;28;20037;-77
2022/05/26 11:52:51;;;;;;;11.32;6.13;;;;;;;18.89;51.11;102048.47;4996887;28;20034;-75
2022/05/26 11:55:26;;;;;;;8.13;6.18;;;;;;;18.96;52.30;102036.75;5000330;28;20064;-80
2022/05/26 11:57:56;;;;;;;9.27;6.30;;;;;;;19.08;50.71;102037.19;5001646;28;20196;-76
2022/05/26 12:00:40;;;;;;;8.63;6.00;;;;;;;19.18;51.63;102038.50;5002757;28;20042;-77
2022/05/26 12:03:23;;;;;;;10.27;6.88;;;;;;;19.18;51.66;102043.78;5001766;28;20111;-77
2022/05/26 12:06:04;;;;;;;8.65;6.55;;;;;;;19.13;50.76;102035.19;5005869;28;20037;-76
2022/05/26 12:08:52;;;;;;;9.45;6.63;;;;;;;19.11;51.23;102042.34;5005415;28;20033;-76
2022/05/26 12:11:19;;;;;;;11.45;6.35;;;;;;;19.10;50.40;102037.97;5000075;28;20127;-76
2022/05/26 12:13:59;;;;;;;10.30;6.10;;;;;;;19.11;50.98;102040.53;5002965;28;20574;-76
2022/05/26 12:16:27;;;;;;;8.77;5.93;;;;;;;19.16;50.29;102039.50;5002837;28;20029;-76
2022/05/26 12:18:56;;;;;;;10.15;7.15;;;;;;;19.20;50.25;102034.00;5000072;28;20058;-76
2022/05/26 12:21:27;;;;;;;13.90;7.03;;;;;;;19.29;50.58;102029.28;4999817;28;21079;-77